Time;durP1;ratioP1;P1;durP2;ratioP2;P2;SDS_P1;SDS_P2;PMS_P1;PMS_P2;Temp;Humidity;BMP_temperature;BMP_pressure;BME280_temperature;BME280_humidity;BME280_pressure;Samples;Min_cycle;Max_cycle;Signal;HPM_P1;HPM_P2
2021/01/14 00:02:07;;;;;;;1.80;0.53;;;;;;;5.29;100.00;97822.38;5042571;28;20234;-76
2021/01/14 00:04:33;;;;;;;1.57;0.57;;;;;;;5.25;100.00;97820.25;5050509;28;20211;-72
2021/01/14 00:07:00;;;;;;;0.47;0.47;;;;;;;5.19;100.00;97836.81;5050739;28;20666;-76
2021/01/14 00:09:28;;;;;;;0.50;0.50;;;;;;;5.13;100.00;97835.69;5052170;28;20203;-73
2021/01/14 00:11:55;;;;;;;0.60;0.50;;;;;;;5.04;100.00;97843.81;5049866;28;20224;-74
2021/01/14 00:14:22;;;;;;;1.30;0.70;;;;;;;5.03;100.00;97840.34;5044460;28;20770;-73
2021/01/14 00:16:48;;;;;;;0.70;0.57;;;;;;;5.15;100.00;97838.16;5049369;28;20211;-73
2021/01/14 00:19:16;;;;;;;0.43;0.40;;;;;;;5.04;100.00;97849.09;5050342;28;20351;-75
2021/01/14 00:21:44;;;;;;;1.00;0.90;;;;;;;5.08;100.00;97839.84;5050243;28;20734;-75
2021/01/14 00:24:11;;;;;;;0.70;0.70;;;;;;;4.86;100.00;97824.69;5050520;28;20206;-73
2021/01/14 00:26:40;;;;;;;0.60;0.60;;;;;;;5.01;100.00;97826.47;5050087;28;20666;-73
2021/01/14 00:29:07;;;;;;;0.77;0.57;;;;;;;4.89;100.00;97833.13;5045693;28;20737;-75
2021/01/14 00:31:34;;;;;;;0.90;0.80;;;;;;;5.03;100.00;97835.06;5049371;28;20242;-74
2021/01/14 00:34:01;;;;;;;0.90;0.70;;;;;;;5.09;100.00;97833.56;5046454;28;20198;-75
2021/01/14 00:37:50;;;;;;;1.13;0.80;;;;;;;5.09;100.00;97844.13;5050143;28;20204;-72
2021/01/14 00:39:21;;;;;;;1.27;0.87;;;;;;;4.88;100.00;97844.69;5047065;28;20203;-75
2021/01/14 00:41:49;;;;;;;1.33;0.80;;;;;;;5.06;100.00;97836.53;5045764;28;20331;-75
2021/01/14 00:44:16;;;;;;;1.00;0.70;;;;;;;4.95;100.00;97826.31;5049918;28;20657;-76
2021/01/14 00:46:43;;;;;;;0.97;0.87;;;;;;;5.02;100.00;97819.38;5050167;28;20201;-74
2021/01/14 00:49:09;;;;;;;1.60;1.00;;;;;;;4.99;100.00;97809.13;5050056;28;20200;-74
2021/01/14 00:51:37;;;;;;;1.27;1.00;;;;;;;5.07;100.00;97822.34;5041462;28;20732;-73
2021/01/14 00:54:05;;;;;;;2.00;1.37;;;;;;;4.95;100.00;97836.91;5047217;28;20234;-74
2021/01/14 00:56:32;;;;;;;2.27;1.50;;;;;;;4.90;100.00;97860.38;5054118;28;20203;-75
2021/01/14 00:59:00;;;;;;;3.97;1.80;;;;;;;5.01;100.00;97871.44;5051800;28;20208;-75
2021/01/14 01:01:27;;;;;;;2.13;1.60;;;;;;;5.01;100.00;97873.25;5051121;28;20208;-73
2021/01/14 01:03:54;;;;;;;2.53;1.53;;;;;;;5.09;100.00;97870.56;5051799;28;20200;-75
2021/01/14 01:06:21;;;;;;;2.90;1.70;;;;;;;5.05;100.00;97872.75;5049508;28;20205;-74
2021/01/14 01:08:49;;;;;;;2.00;1.20;;;;;;;5.01;100.00;97865.31;5052409;28;20205;-74
2021/01/14 01:11:16;;;;;;;3.80;1.73;;;;;;;5.12;100.00;97863.13;5054796;28;20213;-74
2021/01/14 01:13:43;;;;;;;2.77;1.67;;;;;;;4.95;100.00;97880.03;5052805;28;20703;-74
2021/01/14 01:16:16;;;;;;;2.43;1.60;;;;;;;5.21;100.00;97904.44;5048219;28;20254;-74
2021/01/14 01:18:42;;;;;;;2.60;1.73;;;;;;;5.16;100.00;97905.94;5047116;28;20195;-74
2021/01/14 01:21:10;;;;;;;2.00;1.50;;;;;;;5.14;100.00;97890.22;5051336;28;20215;-74
2021/01/14 01:23:36;;;;;;;2.87;1.97;;;;;;;5.02;100.00;97904.81;5051754;28;20202;-74
2021/01/14 01:26:03;;;;;;;2.73;1.70;;;;;;;5.13;100.00;97875.34;5053585;28;20204;-73
2021/01/14 01:28:30;;;;;;;3.60;1.80;;;;;;;5.11;100.00;97864.13;5051796;28;20226;-74
2021/01/14 01:30:57;;;;;;;2.97;1.80;;;;;;;5.14;100.00;97862.97;5052791;28;20203;-74
2021/01/14 01:33:27;;;;;;;2.33;1.70;;;;;;;5.08;100.00;97866.28;5052723;28;20235;-73
2021/01/14 01:35:54;;;;;;;2.47;1.63;;;;;;;5.08;100.00;97882.16;5052684;28;20602;-73
2021/01/14 01:38:21;;;;;;;2.27;1.77;;;;;;;5.12;100.00;97888.78;5049943;28;20207;-74
2021/01/14 01:40:55;;;;;;;2.03;1.73;;;;;;;4.95;100.00;97872.13;5050453;28;20211;-73
2021/01/14 01:43:22;;;;;;;3.03;1.93;;;;;;;4.94;100.00;97864.34;5051232;28;20227;-74
2021/01/14 01:45:49;;;;;;;2.77;1.77;;;;;;;5.06;100.00;97876.19;5052869;28;20200;-76
2021/01/14 01:48:17;;;;;;;2.17;1.40;;;;;;;5.08;100.00;97890.09;5051324;28;20199;-74
2021/01/14 01:50:45;;;;;;;2.67;1.60;;;;;;;5.21;100.00;97899.16;5050523;28;20301;-73
2021/01/14 01:53:12;;;;;;;3.17;1.40;;;;;;;5.02;100.00;97899.53;5047914;28;20267;-72
2021/01/14 01:55:39;;;;;;;3.13;1.80;;;;;;;5.17;100.00;97903.13;5050541;28;20224;-75
2021/01/14 01:58:06;;;;;;;2.53;1.73;;;;;;;5.16;100.00;97904.13;5050263;28;20203;-74
2021/01/14 02:00:33;;;;;;;3.60;2.10;;;;;;;5.04;100.00;97902.00;5050755;28;20198;-75
2021/01/14 02:03:00;;;;;;;3.43;1.60;;;;;;;5.06;100.00;97892.91;5051812;28;20235;-75
2021/01/14 02:05:27;;;;;;;4.20;1.73;;;;;;;4.96;100.00;97902.84;5051458;28;20210;-76
2021/01/14 02:08:05;;;;;;;1.77;1.20;;;;;;;5.04;100.00;97909.94;5048234;28;20221;-75
2021/01/14 02:10:33;;;;;;;3.63;1.27;;;;;;;4.96;100.00;97920.50;5048989;28;20678;-75
2021/01/14 02:13:12;;;;;;;2.47;1.50;;;;;;;4.90;100.00;97906.16;5046534;28;20222;-75
2021/01/14 02:15:40;;;;;;;3.07;1.80;;;;;;;4.92;100.00;97898.88;5050753;28;20221;-75
2021/01/14 02:18:08;;;;;;;2.13;1.30;;;;;;;4.79;100.00;97888.00;5050906;28;20204;-76
2021/01/14 02:20:35;;;;;;;3.00;1.60;;;;;;;4.76;100.00;97906.84;5048280;28;20198;-75
2021/01/14 02:23:17;;;;;;;1.63;1.40;;;;;;;4.80;100.00;97904.69;5046697;28;20591;-77
2021/01/14 02:26:04;;;;;;;2.37;1.40;;;;;;;4.82;100.00;97924.66;5045057;28;20202;-75
2021/01/14 02:28:32;;;;;;;1.50;1.17;;;;;;;4.74;100.00;97911.47;5049297;28;20203;-74
2021/01/14 02:30:58;;;;;;;2.07;1.77;;;;;;;4.71;100.00;97911.78;5048176;28;20683;-76
2021/01/14 02:33:25;;;;;;;1.93;1.40;;;;;;;4.62;100.00;97910.16;5051366;28;20310;-75
2021/01/14 02:35:52;;;;;;;2.53;1.20;;;;;;;4.69;100.00;97926.19;5043826;28;20228;-75
2021/01/14 02:38:19;;;;;;;3.07;1.57;;;;;;;4.63;100.00;97948.78;5049924;28;20264;-76
2021/01/14 02:40:46;;;;;;;2.30;1.47;;;;;;;4.67;100.00;97941.38;5051801;28;20202;-75
2021/01/14 02:43:13;;;;;;;1.93;1.33;;;;;;;4.74;100.00;97942.34;5052826;28;20222;-75
2021/01/14 02:45:40;;;;;;;3.20;1.67;;;;;;;4.55;100.00;97940.88;5046839;28;20207;-75
2021/01/14 02:48:10;;;;;;;3.50;1.50;;;;;;;4.71;100.00;97934.75;5045232;28;20206;-76
2021/01/14 02:50:39;;;;;;;2.20;1.40;;;;;;;4.65;100.00;97951.28;5042791;28;20675;-76
2021/01/14 02:53:07;;;;;;;3.87;1.70;;;;;;;4.55;100.00;97946.16;5051839;28;20231;-75
2021/01/14 02:55:34;;;;;;;2.30;1.60;;;;;;;4.60;100.00;97948.31;5045857;28;20227;-75
2021/01/14 02:58:01;;;;;;;3.67;2.00;;;;;;;4.56;100.00;97934.59;5047504;28;20202;-76
2021/01/14 03:00:29;;;;;;;3.27;1.40;;;;;;;4.64;100.00;97929.31;5049733;28;20200;-73
2021/01/14 03:02:56;;;;;;;2.67;1.70;;;;;;;4.51;100.00;97930.78;5047483;28;20610;-75
2021/01/14 03:05:22;;;;;;;1.83;1.37;;;;;;;4.67;100.00;97925.53;5050956;28;20199;-75
2021/01/14 03:07:49;;;;;;;2.83;1.63;;;;;;;4.51;100.00;97944.84;5051624;28;20209;-75
2021/01/14 03:10:16;;;;;;;3.73;1.53;;;;;;;4.45;100.00;97942.03;5044885;28;20203;-75
2021/01/14 03:12:43;;;;;;;1.57;1.17;;;;;;;4.45;100.00;97952.59;5047118;28;20230;-74
2021/01/14 03:15:10;;;;;;;2.57;1.27;;;;;;;4.49;100.00;97953.91;5048617;28;20699;-76
2021/01/14 03:17:38;;;;;;;2.63;1.67;;;;;;;4.55;100.00;97955.91;5047929;28;20204;-74
2021/01/14 03:20:08;;;;;;;3.37;1.80;;;;;;;4.58;100.00;97950.28;5050541;28;20198;-75
2021/01/14 03:22:39;;;;;;;3.07;1.83;;;;;;;4.45;100.00;97956.06;5051390;28;20226;-75
2021/01/14 03:25:07;;;;;;;2.90;1.63;;;;;;;4.53;100.00;97956.06;5041403;28;20203;-76
2021/01/14 03:27:37;;;;;;;1.57;1.30;;;;;;;4.37;100.00;97960.53;5049302;28;20199;-75
2021/01/14 03:30:05;;;;;;;2.47;1.73;;;;;;;4.50;100.00;97960.84;5042900;28;20210;-75
2021/01/14 03:32:32;;;;;;;2.00;1.40;;;;;;;4.45;100.00;97947.31;5050595;28;20219;-75
2021/01/14 03:35:00;;;;;;;2.37;1.60;;;;;;;4.56;100.00;97958.38;5047826;28;20222;-75
2021/01/14 03:37:27;;;;;;;3.80;1.90;;;;;;;4.64;100.00;97957.56;5050183;28;20199;-74
2021/01/14 03:39:54;;;;;;;1.83;1.40;;;;;;;4.40;100.00;97961.03;5049466;28;20199;-75
2021/01/14 03:42:22;;;;;;;3.47;1.70;;;;;;;4.43;100.00;97965.94;5051068;28;20226;-75
2021/01/14 03:44:49;;;;;;;5.10;1.77;;;;;;;4.42;100.00;97966.16;5047971;28;20584;-76
2021/01/14 03:47:16;;;;;;;4.37;1.80;;;;;;;4.30;100.00;97962.16;5052208;28;20197;-75
2021/01/14 03:49:43;;;;;;;4.43;1.77;;;;;;;4.26;100.00;97958.19;5049487;28;20210;-75
2021/01/14 03:52:11;;;;;;;4.07;1.73;;;;;;;4.20;100.00;97959.66;5051558;28;20218;-75
2021/01/14 03:54:38;;;;;;;3.03;1.43;;;;;;;4.25;100.00;97965.28;5052240;28;20284;-75
2021/01/14 03:57:05;;;;;;;2.73;1.90;;;;;;;4.26;100.00;97963.50;5049853;28;20214;-76
2021/01/14 03:59:32;;;;;;;4.63;1.70;;;;;;;4.09;100.00;97970.53;5050636;28;20566;-76
2021/01/14 04:02:00;;;;;;;3.53;1.83;;;;;;;4.07;100.00;97982.25;5050511;28;20226;-76
2021/01/14 04:04:27;;;;;;;3.80;1.73;;;;;;;3.99;100.00;97983.06;5048728;28;20205;-76
2021/01/14 04:06:54;;;;;;;3.30;1.60;;;;;;;3.91;100.00;97979.56;5046975;28;20258;-75
2021/01/14 04:09:22;;;;;;;4.33;1.80;;;;;;;4.01;100.00;97981.06;5047458;28;20212;-76
2021/01/14 04:11:49;;;;;;;3.70;1.70;;;;;;;4.02;100.00;97980.06;5042656;28;20219;-76
2021/01/14 04:14:16;;;;;;;2.33;1.53;;;;;;;4.03;100.00;97973.00;5048501;28;20563;-75
2021/01/14 04:16:43;;;;;;;3.17;1.50;;;;;;;3.84;100.00;97967.97;5048433;28;20358;-77
2021/01/14 04:19:10;;;;;;;4.60;2.00;;;;;;;3.92;100.00;97973.28;5050472;28;20221;-75
2021/01/14 04:21:37;;;;;;;5.07;2.13;;;;;;;3.82;100.00;97983.97;5038888;28;20596;-76
2021/01/14 04:24:04;;;;;;;2.97;1.80;;;;;;;3.91;100.00;97992.75;5050737;28;20677;-77
2021/01/14 04:26:32;;;;;;;4.87;2.10;;;;;;;3.91;100.00;98001.50;5052003;28;20215;-76
2021/01/14 04:28:59;;;;;;;4.10;1.80;;;;;;;4.00;100.00;97997.91;5053118;28;20201;-78
2021/01/14 04:31:25;;;;;;;4.63;2.33;;;;;;;3.87;100.00;98008.06;5051740;28;20251;-77
2021/01/14 04:33:52;;;;;;;2.67;1.80;;;;;;;4.00;100.00;98011.09;5043404;28;20202;-72
2021/01/14 04:36:19;;;;;;;3.57;2.00;;;;;;;3.89;100.00;98011.41;5047466;28;20275;-74
2021/01/14 04:38:46;;;;;;;4.50;2.53;;;;;;;3.66;100.00;98020.03;5054306;28;20202;-78
2021/01/14 04:41:17;;;;;;;4.10;1.93;;;;;;;3.68;100.00;98013.63;5049789;28;20201;-76
2021/01/14 04:43:44;;;;;;;6.07;2.50;;;;;;;3.66;100.00;98017.41;5054738;28;20229;-77
2021/01/14 04:46:13;;;;;;;4.70;2.20;;;;;;;3.81;100.00;98010.53;5051393;28;20205;-75
2021/01/14 04:48:41;;;;;;;3.40;2.13;;;;;;;3.86;100.00;98002.97;5054295;28;20209;-76
2021/01/14 04:51:09;;;;;;;5.43;2.03;;;;;;;3.69;100.00;97995.97;5049519;28;20202;-76
2021/01/14 04:53:37;;;;;;;5.23;2.40;;;;;;;3.74;100.00;98007.69;5052094;28;20217;-75
2021/01/14 04:56:06;;;;;;;4.37;1.77;;;;;;;3.59;100.00;98009.28;5052586;28;20218;-75
2021/01/14 04:58:34;;;;;;;9.83;2.50;;;;;;;3.69;100.00;98007.34;5054110;28;20208;-75
2021/01/14 05:01:05;;;;;;;4.30;2.60;;;;;;;3.62;100.00;98010.78;5048309;28;20233;-76
2021/01/14 05:03:34;;;;;;;5.03;2.27;;;;;;;3.78;100.00;98006.41;5052493;28;20305;-76
2021/01/14 05:06:03;;;;;;;3.40;1.90;;;;;;;3.76;100.00;98011.00;5049748;28;20226;-75
2021/01/14 05:08:32;;;;;;;3.53;2.13;;;;;;;3.71;100.00;98020.41;5046648;28;20202;-76
2021/01/14 05:10:59;;;;;;;4.37;2.10;;;;;;;3.54;100.00;98003.66;5050526;28;20621;-76
2021/01/14 05:13:30;;;;;;;5.13;2.23;;;;;;;3.58;100.00;98017.34;5054117;28;20222;-76
2021/01/14 05:15:57;;;;;;;4.53;2.37;;;;;;;3.64;100.00;98017.56;5050404;28;20775;-76
2021/01/14 05:18:25;;;;;;;5.37;2.13;;;;;;;3.67;100.00;98026.97;5041437;28;20206;-75
2021/01/14 05:20:56;;;;;;;3.97;2.50;;;;;;;3.50;100.00;98027.88;5049414;28;20210;-75
2021/01/14 05:23:23;;;;;;;4.30;2.20;;;;;;;3.54;100.00;98027.41;5050191;28;20234;-75
2021/01/14 05:25:53;;;;;;;4.43;2.37;;;;;;;3.39;100.00;98041.31;5050820;28;20205;-76
2021/01/14 05:28:20;;;;;;;3.63;2.43;;;;;;;3.48;100.00;98043.00;5051564;28;20199;-75
2021/01/14 05:30:48;;;;;;;4.40;2.33;;;;;;;3.39;100.00;98042.13;5049913;28;20655;-79
2021/01/14 05:33:16;;;;;;;4.13;2.57;;;;;;;3.51;100.00;98038.25;5047457;28;20901;-75
2021/01/14 05:35:47;;;;;;;4.87;2.47;;;;;;;3.43;100.00;98051.41;5046853;28;20229;-74
2021/01/14 05:38:26;;;;;;;4.17;2.50;;;;;;;3.43;100.00;98059.31;5050966;28;20208;-74
2021/01/14 05:43:51;;;;;;;3.67;2.60;;;;;;;3.62;100.00;98058.28;5040857;28;20254;-76
2021/01/14 05:46:19;;;;;;;4.70;2.53;;;;;;;3.66;100.00;98060.44;5039895;28;21769;-75
2021/01/14 05:48:47;;;;;;;4.83;2.53;;;;;;;3.63;100.00;98055.47;5049938;28;20575;-74
2021/01/14 05:51:21;;;;;;;4.53;2.33;;;;;;;3.56;100.00;98059.72;5049422;28;20210;-74
2021/01/14 05:53:56;;;;;;;4.20;2.67;;;;;;;3.53;100.00;98051.28;5052259;28;20197;-77
2021/01/14 05:56:37;;;;;;;8.40;2.90;;;;;;;3.55;100.00;98052.78;5045478;28;20222;-76
2021/01/14 05:59:06;;;;;;;5.90;2.67;;;;;;;3.59;100.00;98055.94;5046399;28;20201;-76
2021/01/14 06:01:33;;;;;;;4.50;2.77;;;;;;;3.77;100.00;98061.97;5047450;28;20235;-74
2021/01/14 06:04:15;;;;;;;6.40;3.10;;;;;;;3.80;100.00;98059.00;5048690;28;20202;-74
2021/01/14 06:06:44;;;;;;;4.43;3.07;;;;;;;3.49;100.00;98065.75;5048587;28;20214;-76
2021/01/14 06:09:15;;;;;;;4.83;2.97;;;;;;;3.78;100.00;98076.81;5052536;28;20666;-74
2021/01/14 06:11:42;;;;;;;6.23;2.93;;;;;;;3.70;100.00;98069.69;5049146;28;20236;-75
2021/01/14 06:14:26;;;;;;;3.87;2.40;;;;;;;3.62;100.00;98069.66;5042318;28;20206;-77
2021/01/14 06:16:53;;;;;;;5.00;2.83;;;;;;;3.58;100.00;98073.59;5045115;28;20243;-76
2021/01/14 06:19:25;;;;;;;5.67;2.93;;;;;;;3.63;100.00;98059.91;5049041;28;20203;-76
2021/01/14 06:21:55;;;;;;;5.27;2.27;;;;;;;3.58;100.00;98064.84;5052396;28;20226;-76
2021/01/14 06:24:27;;;;;;;4.97;2.83;;;;;;;3.56;100.00;98064.19;5052835;28;20211;-77
2021/01/14 06:26:55;;;;;;;6.30;3.40;;;;;;;3.67;100.00;98070.00;5052067;28;20199;-77
2021/01/14 06:29:24;;;;;;;4.93;2.57;;;;;;;3.54;100.00;98072.25;5051106;28;20670;-77
2021/01/14 06:31:51;;;;;;;4.93;2.60;;;;;;;3.63;100.00;98071.31;5041028;28;20651;-76
2021/01/14 06:34:20;;;;;;;5.97;2.60;;;;;;;3.71;100.00;98081.09;5044728;28;20685;-76
2021/01/14 06:36:49;;;;;;;5.03;3.20;;;;;;;3.65;100.00;98090.44;5048745;28;20267;-75
2021/01/14 06:39:18;;;;;;;6.70;3.17;;;;;;;3.60;100.00;98094.56;5052896;28;20711;-76
2021/01/14 06:41:46;;;;;;;6.30;3.70;;;;;;;3.52;100.00;98099.75;5045998;28;20437;-75
2021/01/14 06:44:14;;;;;;;4.37;3.20;;;;;;;3.75;100.00;98106.16;5055217;28;20201;-80
2021/01/14 06:46:41;;;;;;;4.80;3.23;;;;;;;3.67;100.00;98114.84;5050590;28;20207;-76
2021/01/14 06:49:13;;;;;;;3.30;2.90;;;;;;;3.58;100.00;98112.34;5040456;28;20201;-73
2021/01/14 06:51:56;;;;;;;4.83;3.13;;;;;;;3.68;100.00;98105.97;5050448;28;20328;-76
2021/01/14 06:54:26;;;;;;;5.93;2.97;;;;;;;3.58;100.00;98102.63;5051712;28;20206;-76
2021/01/14 06:56:58;;;;;;;6.53;4.07;;;;;;;3.57;100.00;98102.75;5042284;28;20203;-77
2021/01/14 06:59:27;;;;;;;7.43;3.33;;;;;;;3.56;100.00;98116.94;5054714;28;20197;-75
2021/01/14 07:02:28;;;;;;;6.03;3.27;;;;;;;3.50;100.00;98121.00;5039312;28;20241;-75
2021/01/14 07:05:02;;;;;;;9.20;3.10;;;;;;;3.46;100.00;98111.75;5044687;28;20193;-79
2021/01/14 07:07:45;;;;;;;6.33;3.17;;;;;;;3.59;100.00;98111.34;5036278;28;20215;-79
2021/01/14 07:10:14;;;;;;;8.67;3.93;;;;;;;3.59;100.00;98101.63;5039018;28;20205;-79
2021/01/14 07:12:41;;;;;;;8.20;4.47;;;;;;;3.41;100.00;98107.94;5054192;28;20312;-76
2021/01/14 07:15:14;;;;;;;6.97;3.90;;;;;;;3.60;100.00;98099.81;5042723;28;20224;-80
2021/01/14 07:17:42;;;;;;;7.47;3.70;;;;;;;3.47;100.00;98112.59;5037514;28;20229;-73
2021/01/14 07:20:11;;;;;;;8.73;3.70;;;;;;;3.63;100.00;98102.97;5050673;28;20569;-75
2021/01/14 07:22:40;;;;;;;6.27;3.97;;;;;;;3.58;100.00;98115.81;5043921;28;20231;-74
2021/01/14 07:25:08;;;;;;;5.57;3.73;;;;;;;3.55;100.00;98110.81;5051449;28;20198;-78
2021/01/14 07:27:37;;;;;;;8.33;4.07;;;;;;;3.61;100.00;98115.47;5044348;28;20284;-75
2021/01/14 07:30:06;;;;;;;5.93;3.70;;;;;;;3.46;100.00;98116.22;5038788;28;20624;-77
2021/01/14 07:33:04;;;;;;;7.77;4.10;;;;;;;3.53;100.00;98125.16;5050211;28;20221;-76
2021/01/14 07:35:38;;;;;;;8.53;3.97;;;;;;;3.58;100.00;98131.63;5040646;28;20213;-82
2021/01/14 07:38:05;;;;;;;6.13;3.77;;;;;;;3.50;100.00;98130.75;5046141;28;20197;-78
2021/01/14 07:40:32;;;;;;;6.17;3.77;;;;;;;3.61;100.00;98146.34;5039862;28;20201;-78
2021/01/14 07:43:02;;;;;;;6.50;3.70;;;;;;;3.40;100.00;98141.38;5042734;28;20225;-77
2021/01/14 07:45:29;;;;;;;4.37;3.20;;;;;;;3.34;100.00;98144.63;5044454;28;20190;-77
2021/01/14 07:48:04;;;;;;;7.07;4.60;;;;;;;3.50;100.00;98157.94;5047021;28;20198;-78
2021/01/14 07:50:31;;;;;;;8.67;4.30;;;;;;;3.55;100.00;98160.94;5048052;28;20571;-75
2021/01/14 07:52:58;;;;;;;6.93;4.57;;;;;;;3.63;100.00;98157.53;5047282;28;20222;-76
2021/01/14 07:55:26;;;;;;;9.07;4.20;;;;;;;3.59;100.00;98164.94;5047466;28;20221;-77
2021/01/14 07:58:23;;;;;;;8.10;4.20;;;;;;;3.65;100.00;98164.31;5042661;28;20290;-76
2021/01/14 08:01:06;;;;;;;8.97;4.07;;;;;;;3.58;100.00;98162.47;5051834;28;20201;-78
2021/01/14 08:03:34;;;;;;;6.70;4.10;;;;;;;3.51;100.00;98153.50;5056243;28;20608;-75
2021/01/14 08:06:21;;;;;;;9.03;3.70;;;;;;;3.66;100.00;98155.41;5053526;28;20701;-75
2021/01/14 08:09:05;;;;;;;7.83;4.27;;;;;;;3.54;100.00;98151.38;5054814;28;20220;-76
2021/01/14 08:11:32;;;;;;;8.80;4.47;;;;;;;3.56;100.00;98162.59;5040810;28;20224;-75
2021/01/14 08:14:18;;;;;;;9.17;4.20;;;;;;;3.60;100.00;98169.25;5047981;28;20286;-76
2021/01/14 08:16:47;;;;;;;8.13;3.97;;;;;;;3.43;100.00;98167.47;5052968;28;20213;-75
2021/01/14 08:19:21;;;;;;;5.93;4.20;;;;;;;3.39;100.00;98171.38;5054640;28;20288;-76
2021/01/14 08:21:49;;;;;;;6.30;4.00;;;;;;;3.58;100.00;98167.72;5051254;28;20248;-75
2021/01/14 08:24:42;;;;;;;6.03;3.70;;;;;;;3.45;100.00;98173.41;5045764;28;20786;-77
2021/01/14 08:27:10;;;;;;;5.40;3.27;;;;;;;3.48;100.00;98182.81;5044551;28;20198;-77
2021/01/14 08:29:56;;;;;;;6.63;3.93;;;;;;;3.51;100.00;98179.91;5054702;28;20215;-77
2021/01/14 08:32:29;;;;;;;8.97;4.40;;;;;;;3.43;100.00;98175.38;5053581;28;20708;-78
2021/01/14 08:34:56;;;;;;;9.43;4.33;;;;;;;3.56;100.00;98170.53;5052744;28;20917;-77
2021/01/14 08:37:31;;;;;;;9.43;4.10;;;;;;;3.62;100.00;98179.66;5057260;28;20201;-76
2021/01/14 08:40:04;;;;;;;6.13;4.10;;;;;;;3.59;100.00;98186.06;5049229;28;20197;-77
2021/01/14 08:42:33;;;;;;;9.83;3.53;;;;;;;3.56;100.00;98185.53;5057126;28;20308;-75
2021/01/14 08:45:06;;;;;;;8.37;4.27;;;;;;;3.69;100.00;98204.44;5055533;28;20231;-75
2021/01/14 08:47:56;;;;;;;7.80;4.00;;;;;;;3.43;100.00;98217.59;5055260;28;20209;-77
2021/01/14 08:50:46;;;;;;;6.93;3.70;;;;;;;3.45;100.00;98207.69;5058645;28;20657;-78
2021/01/14 08:53:24;;;;;;;9.27;3.53;;;;;;;3.64;100.00;98199.63;5057044;28;20230;-78
2021/01/14 08:55:55;;;;;;;5.87;3.63;;;;;;;3.61;100.00;98213.09;5059581;28;20258;-79
2021/01/14 08:58:31;;;;;;;7.00;3.40;;;;;;;3.49;100.00;98219.63;5058179;28;20205;-78
2021/01/14 09:00:59;;;;;;;8.40;3.80;;;;;;;3.74;100.00;98228.53;5058088;28;20205;-77
2021/01/14 09:03:26;;;;;;;4.83;3.33;;;;;;;3.71;100.00;98223.59;5063544;28;20237;-77
2021/01/14 09:05:54;;;;;;;5.83;3.57;;;;;;;3.85;100.00;98229.13;5056377;28;20201;-78
2021/01/14 09:08:21;;;;;;;5.93;3.47;;;;;;;3.72;100.00;98233.16;5052531;28;20206;-77
2021/01/14 09:10:49;;;;;;;6.10;3.43;;;;;;;3.90;100.00;98231.31;5050340;28;20197;-76
2021/01/14 09:13:18;;;;;;;6.33;3.80;;;;;;;3.72;100.00;98219.97;5054783;28;20218;-77
2021/01/14 09:15:45;;;;;;;12.03;3.93;;;;;;;3.88;100.00;98228.84;5054677;28;20317;-78
2021/01/14 09:18:14;;;;;;;7.97;4.20;;;;;;;3.92;100.00;98232.00;5054622;28;20217;-78
2021/01/14 09:20:41;;;;;;;5.53;3.53;;;;;;;4.05;100.00;98235.88;5041099;28;20214;-78
2021/01/14 09:23:17;;;;;;;7.80;4.07;;;;;;;3.85;100.00;98236.22;5056007;28;20260;-78
2021/01/14 09:25:45;;;;;;;7.73;3.63;;;;;;;3.82;100.00;98242.63;5052963;28;20206;-77
2021/01/14 09:28:12;;;;;;;6.77;4.07;;;;;;;3.93;100.00;98244.22;5057463;28;20215;-78
2021/01/14 09:30:39;;;;;;;6.40;3.63;;;;;;;3.94;100.00;98251.16;5060237;28;20202;-75
2021/01/14 09:33:06;;;;;;;13.37;6.57;;;;;;;3.89;100.00;98256.91;5059692;28;20226;-78
2021/01/14 09:35:33;;;;;;;10.27;4.27;;;;;;;3.92;100.00;98261.03;5057016;28;20218;-77
2021/01/14 09:38:00;;;;;;;5.70;3.63;;;;;;;3.60;100.00;98271.34;5051950;28;20387;-79
2021/01/14 09:40:27;;;;;;;7.20;3.70;;;;;;;3.76;100.00;98276.75;5044278;28;20554;-79
2021/01/14 09:42:54;;;;;;;7.67;3.63;;;;;;;4.04;100.00;98275.63;5050983;28;20228;-79
2021/01/14 09:45:21;;;;;;;7.10;3.80;;;;;;;4.02;100.00;98281.06;5055586;28;20197;-77
2021/01/14 09:47:49;;;;;;;12.60;4.77;;;;;;;4.28;100.00;98286.38;5050037;28;20293;-79
2021/01/14 09:50:16;;;;;;;6.57;3.60;;;;;;;4.23;100.00;98289.50;5061025;28;20230;-78
2021/01/14 09:52:44;;;;;;;10.03;4.27;;;;;;;4.18;100.00;98286.50;5061978;28;20229;-76
2021/01/14 09:55:13;;;;;;;6.43;3.63;;;;;;;4.14;100.00;98290.41;5058249;28;20225;-75
2021/01/14 09:57:46;;;;;;;6.93;3.33;;;;;;;4.04;100.00;98288.84;5051668;28;20222;-77
2021/01/14 10:00:17;;;;;;;5.97;2.97;;;;;;;3.84;100.00;98290.84;5053095;28;20210;-80
2021/01/14 10:02:45;;;;;;;6.07;3.60;;;;;;;3.93;100.00;98303.13;5053123;28;20239;-78
2021/01/14 10:05:14;;;;;;;10.33;3.73;;;;;;;4.04;100.00;98297.59;5052191;28;20228;-79
2021/01/14 10:07:46;;;;;;;5.93;3.10;;;;;;;4.06;100.00;98289.53;5066326;28;20263;-80
2021/01/14 10:10:13;;;;;;;6.03;3.67;;;;;;;4.05;100.00;98290.50;5066022;28;20352;-78
2021/01/14 10:12:40;;;;;;;4.83;2.90;;;;;;;4.02;100.00;98296.09;5054160;28;20225;-76
2021/01/14 10:15:11;;;;;;;6.17;2.70;;;;;;;4.11;100.00;98287.25;5053149;28;20376;-78
2021/01/14 10:17:39;;;;;;;4.67;3.07;;;;;;;3.99;100.00;98293.75;5041555;28;20580;-79
2021/01/14 10:20:07;;;;;;;5.07;3.17;;;;;;;4.01;100.00;98284.69;5047959;28;20207;-77
2021/01/14 10:22:36;;;;;;;4.00;2.60;;;;;;;4.35;100.00;98284.78;5052112;28;20282;-75
2021/01/14 10:25:08;;;;;;;6.73;2.87;;;;;;;4.08;100.00;98292.84;5049278;28;20221;-78
2021/01/14 10:27:35;;;;;;;4.20;2.67;;;;;;;3.82;100.00;98286.69;5046635;28;20211;-78
2021/01/14 10:30:18;;;;;;;8.03;2.90;;;;;;;4.08;100.00;98293.69;5050707;28;20211;-77
2021/01/14 10:32:45;;;;;;;4.97;2.27;;;;;;;3.87;100.00;98301.06;5043329;28;20318;-78
2021/01/14 10:35:23;;;;;;;9.13;3.10;;;;;;;3.87;100.00;98298.44;5050586;28;20230;-78
2021/01/14 10:38:05;;;;;;;5.07;2.80;;;;;;;3.99;100.00;98302.50;5053025;28;20206;-78
2021/01/14 10:40:40;;;;;;;6.17;3.00;;;;;;;4.16;100.00;98306.94;5051931;28;20667;-78
2021/01/14 10:43:08;;;;;;;7.20;2.83;;;;;;;4.15;100.00;98300.00;5052908;28;20221;-80
2021/01/14 10:45:36;;;;;;;4.43;2.80;;;;;;;3.91;100.00;98310.34;5050725;28;20229;-78
2021/01/14 10:48:08;;;;;;;4.00;2.47;;;;;;;3.67;100.00;98319.88;5056211;28;20205;-76
2021/01/14 10:50:46;;;;;;;3.97;2.67;;;;;;;3.81;100.00;98314.06;5049162;28;20218;-79
2021/01/14 10:53:13;;;;;;;4.57;2.60;;;;;;;4.10;100.00;98323.41;5049397;28;20236;-76
2021/01/14 10:55:44;;;;;;;6.13;2.50;;;;;;;4.20;100.00;98329.41;5045854;28;20310;-77
2021/01/14 10:58:22;;;;;;;5.60;2.70;;;;;;;3.71;100.00;98329.97;5042262;28;20202;-78
2021/01/14 11:00:49;;;;;;;6.23;2.90;;;;;;;3.80;100.00;98331.72;5047770;28;20189;-78
2021/01/14 11:03:22;;;;;;;6.87;3.47;;;;;;;3.79;100.00;98335.34;5048307;28;20234;-77
2021/01/14 11:05:50;;;;;;;6.20;3.03;;;;;;;4.00;100.00;98327.94;5050156;28;20883;-78
2021/01/14 11:08:18;;;;;;;6.00;2.57;;;;;;;4.17;100.00;98331.53;5048921;28;20560;-76
2021/01/14 11:10:47;;;;;;;4.47;2.90;;;;;;;4.04;100.00;98326.66;5043674;28;20645;-78
2021/01/14 11:13:15;;;;;;;5.00;3.30;;;;;;;4.04;100.00;98313.44;5051963;28;20247;-77
2021/01/14 11:15:42;;;;;;;9.53;2.77;;;;;;;3.94;100.00;98315.34;5050593;28;20230;-77
2021/01/14 11:18:10;;;;;;;4.70;2.73;;;;;;;4.07;100.00;98320.25;5046984;28;20206;-78
2021/01/14 11:20:37;;;;;;;6.40;2.93;;;;;;;3.82;100.00;98321.00;5046763;28;20210;-77
2021/01/14 11:23:04;;;;;;;6.03;3.13;;;;;;;3.74;100.00;98327.03;5047357;28;20222;-78
2021/01/14 11:25:31;;;;;;;4.93;3.00;;;;;;;3.96;100.00;98313.38;5045249;28;20200;-80
2021/01/14 11:27:59;;;;;;;8.70;3.17;;;;;;;4.11;100.00;98313.69;5050466;28;20286;-78
2021/01/14 11:30:26;;;;;;;7.03;3.40;;;;;;;4.17;100.00;98321.78;5048956;28;20202;-77
2021/01/14 11:32:53;;;;;;;6.13;3.83;;;;;;;3.91;100.00;98314.81;5048184;28;20219;-77
2021/01/14 11:35:20;;;;;;;8.83;3.13;;;;;;;4.15;100.00;98315.84;5047438;28;20223;-78
2021/01/14 11:37:47;;;;;;;6.67;3.67;;;;;;;4.13;100.00;98320.47;5047183;28;20236;-76
2021/01/14 11:40:14;;;;;;;6.13;3.07;;;;;;;3.98;100.00;98319.34;5042757;28;20225;-76
2021/01/14 11:42:41;;;;;;;7.33;3.07;;;;;;;3.95;100.00;98316.16;5041478;28;20237;-76
2021/01/14 11:45:09;;;;;;;4.57;2.67;;;;;;;4.12;100.00;98312.69;5052240;28;20677;-78
2021/01/14 11:47:36;;;;;;;5.03;3.23;;;;;;;4.37;100.00;98314.53;5050440;28;20288;-77
2021/01/14 11:50:04;;;;;;;4.67;2.90;;;;;;;4.59;100.00;98316.63;5046496;28;20194;-78